sensor_id;sensor_type;location;lat;lon;timestamp;pressure;altitude;pressure_sealevel;temperature;humidity
77003;BME280;65939;50.060;14.288;2023-04-06T00:00:42;97638.16;;;0.70;70.71
77003;BME280;65939;50.060;14.288;2023-04-06T00:02:43;97633.78;;;0.72;70.61
77003;BME280;65939;50.060;14.288;2023-04-06T00:04:44;97629.34;;;0.74;70.69
77003;BME280;65939;50.060;14.288;2023-04-06T00:06:44;97630.09;;;0.76;70.88
77003;BME280;65939;50.060;14.288;2023-04-06T00:08:45;97634.31;;;0.77;70.85
77003;BME280;65939;50.060;14.288;2023-04-06T00:10:46;97627.44;;;0.78;70.38
77003;BME280;65939;50.060;14.288;2023-04-06T00:12:46;97626.63;;;0.77;71.21
77003;BME280;65939;50.060;14.288;2023-04-06T00:14:47;97625.78;;;0.77;71.11
77003;BME280;65939;50.060;14.288;2023-04-06T00:16:48;97623.31;;;0.75;70.58
77003;BME280;65939;50.060;14.288;2023-04-06T00:18:48;97624.31;;;0.73;70.89
77003;BME280;65939;50.060;14.288;2023-04-06T00:20:49;97623.56;;;0.70;70.73
77003;BME280;65939;50.060;14.288;2023-04-06T00:22:51;97616.03;;;0.67;70.22
77003;BME280;65939;50.060;14.288;2023-04-06T00:24:52;97621.25;;;0.66;70.79
77003;BME280;65939;50.060;14.288;2023-04-06T00:26:52;97617.94;;;0.64;70.29
77003;BME280;65939;50.060;14.288;2023-04-06T00:28:53;97613.00;;;0.61;70.75
77003;BME280;65939;50.060;14.288;2023-04-06T00:30:54;97609.66;;;0.59;70.85
77003;BME280;65939;50.060;14.288;2023-04-06T00:32:55;97608.91;;;0.57;70.69
77003;BME280;65939;50.060;14.288;2023-04-06T00:34:56;97611.47;;;0.57;70.81
77003;BME280;65939;50.060;14.288;2023-04-06T00:36:57;97612.41;;;0.56;70.60
77003;BME280;65939;50.060;14.288;2023-04-06T00:38:57;97616.72;;;0.55;70.87
77003;BME280;65939;50.060;14.288;2023-04-06T00:40:58;97609.94;;;0.54;70.83
77003;BME280;65939;50.060;14.288;2023-04-06T00:42:59;97607.44;;;0.53;70.72
77003;BME280;65939;50.060;14.288;2023-04-06T00:45:01;97612.66;;;0.51;70.46
77003;BME280;65939;50.060;14.288;2023-04-06T00:47:02;97607.59;;;0.50;70.64
77003;BME280;65939;50.060;14.288;2023-04-06T00:49:04;97604.31;;;0.47;71.14
77003;BME280;65939;50.060;14.288;2023-04-06T00:51:04;97602.66;;;0.46;70.77
77003;BME280;65939;50.060;14.288;2023-04-06T00:53:05;97608.69;;;0.45;70.69
77003;BME280;65939;50.060;14.288;2023-04-06T00:55:06;97604.47;;;0.44;71.23
77003;BME280;65939;50.060;14.288;2023-04-06T00:57:07;97601.91;;;0.44;70.73
77003;BME280;65939;50.060;14.288;2023-04-06T00:59:07;97602.81;;;0.43;70.98
77003;BME280;65939;50.060;14.288;2023-04-06T01:01:08;97597.75;;;0.42;70.82
77003;BME280;65939;50.060;14.288;2023-04-06T01:03:09;97605.47;;;0.42;70.92
77003;BME280;65939;50.060;14.288;2023-04-06T01:05:11;97603.91;;;0.39;70.80
77003;BME280;65939;50.060;14.288;2023-04-06T01:07:12;97607.31;;;0.40;70.87
77003;BME280;65939;50.060;14.288;2023-04-06T01:09:12;97597.91;;;0.39;70.53
77003;BME280;65939;50.060;14.288;2023-04-06T01:11:13;97594.53;;;0.38;70.48
77003;BME280;65939;50.060;14.288;2023-04-06T01:13:13;97597.91;;;0.39;70.40
77003;BME280;65939;50.060;14.288;2023-04-06T01:15:15;97597.19;;;0.37;70.21
77003;BME280;65939;50.060;14.288;2023-04-06T01:17:16;97597.09;;;0.38;71.01
77003;BME280;65939;50.060;14.288;2023-04-06T01:19:17;97592.88;;;0.37;70.74
77003;BME280;65939;50.060;14.288;2023-04-06T01:21:17;97598.03;;;0.37;70.58
77003;BME280;65939;50.060;14.288;2023-04-06T01:23:18;97592.06;;;0.37;70.72
77003;BME280;65939;50.060;14.288;2023-04-06T01:25:19;97594.69;;;0.35;70.25
77003;BME280;65939;50.060;14.288;2023-04-06T01:27:20;97593.06;;;0.34;70.30
77003;BME280;65939;50.060;14.288;2023-04-06T01:29:21;97600.03;;;0.32;70.74
77003;BME280;65939;50.060;14.288;2023-04-06T01:31:22;97598.34;;;0.31;70.45
77003;BME280;65939;50.060;14.288;2023-04-06T01:33:23;97592.50;;;0.29;70.07
77003;BME280;65939;50.060;14.288;2023-04-06T01:35:26;97595.22;;;0.26;70.08
77003;BME280;65939;50.060;14.288;2023-04-06T01:37:27;97594.47;;;0.24;70.31
77003;BME280;65939;50.060;14.288;2023-04-06T01:39:30;97598.06;;;0.21;70.72
77003;BME280;65939;50.060;14.288;2023-04-06T01:41:31;97600.69;;;0.20;70.28
77003;BME280;65939;50.060;14.288;2023-04-06T01:43:31;97593.16;;;0.17;70.63
77003;BME280;65939;50.060;14.288;2023-04-06T01:45:32;97593.25;;;0.15;70.84
77003;BME280;65939;50.060;14.288;2023-04-06T01:47:33;97590.75;;;0.14;70.33
77003;BME280;65939;50.060;14.288;2023-04-06T01:49:33;97589.09;;;0.13;70.77
77003;BME280;65939;50.060;14.288;2023-04-06T01:51:34;97590.94;;;0.11;70.28
77003;BME280;65939;50.060;14.288;2023-04-06T01:53:35;97591.00;;;0.09;70.55
77003;BME280;65939;50.060;14.288;2023-04-06T01:55:35;97591.91;;;0.08;70.49
77003;BME280;65939;50.060;14.288;2023-04-06T01:57:36;97584.28;;;0.07;70.39
77003;BME280;65939;50.060;14.288;2023-04-06T01:59:37;97582.63;;;0.06;70.58
77003;BME280;65939;50.060;14.288;2023-04-06T02:01:37;97581.91;;;0.04;70.66
77003;BME280;65939;50.060;14.288;2023-04-06T02:03:38;97587.03;;;0.04;70.51
77003;BME280;65939;50.060;14.288;2023-04-06T02:05:39;97588.75;;;0.03;70.74
77003;BME280;65939;50.060;14.288;2023-04-06T02:07:39;97581.16;;;0.02;70.57
77003;BME280;65939;50.060;14.288;2023-04-06T02:09:40;97582.97;;;-0.01;70.17
77003;BME280;65939;50.060;14.288;2023-04-06T02:11:41;97585.63;;;-0.02;70.22
77003;BME280;65939;50.060;14.288;2023-04-06T02:13:41;97579.66;;;-0.03;70.56
77003;BME280;65939;50.060;14.288;2023-04-06T02:15:42;97578.84;;;-0.03;70.30
77003;BME280;65939;50.060;14.288;2023-04-06T02:17:42;97581.47;;;-0.05;70.55
77003;BME280;65939;50.060;14.288;2023-04-06T02:19:43;97576.34;;;-0.05;70.58
77003;BME280;65939;50.060;14.288;2023-04-06T02:21:44;97584.97;;;-0.06;70.50
77003;BME280;65939;50.060;14.288;2023-04-06T02:23:44;97582.28;;;-0.04;70.73
77003;BME280;65939;50.060;14.288;2023-04-06T02:25:45;97575.53;;;-0.05;70.98
77003;BME280;65939;50.060;14.288;2023-04-06T02:27:46;97580.75;;;-0.07;70.87
77003;BME280;65939;50.060;14.288;2023-04-06T02:29:46;97580.75;;;-0.07;71.05
77003;BME280;65939;50.060;14.288;2023-04-06T02:31:47;97579.88;;;-0.07;71.51
77003;BME280;65939;50.060;14.288;2023-04-06T02:33:48;97578.34;;;-0.10;71.17
77003;BME280;65939;50.060;14.288;2023-04-06T02:35:48;97577.44;;;-0.09;71.26
77003;BME280;65939;50.060;14.288;2023-04-06T02:37:49;97577.44;;;-0.09;71.29
77003;BME280;65939;50.060;14.288;2023-04-06T02:39:50;97574.84;;;-0.09;71.67
77003;BME280;65939;50.060;14.288;2023-04-06T02:41:51;97580.09;;;-0.10;71.81
77003;BME280;65939;50.060;14.288;2023-04-06T02:43:51;97579.22;;;-0.11;71.47
77003;BME280;65939;50.060;14.288;2023-04-06T02:45:52;97579.41;;;-0.14;71.28
77003;BME280;65939;50.060;14.288;2023-04-06T02:47:53;97584.56;;;-0.14;71.97
77003;BME280;65939;50.060;14.288;2023-04-06T02:49:53;97578.66;;;-0.16;71.64
77003;BME280;65939;50.060;14.288;2023-04-06T02:51:54;97575.34;;;-0.18;71.58
77003;BME280;65939;50.060;14.288;2023-04-06T02:53:55;97576.25;;;-0.19;71.62
77003;BME280;65939;50.060;14.288;2023-04-06T02:55:55;97576.34;;;-0.20;71.74
77003;BME280;65939;50.060;14.288;2023-04-06T02:57:56;97573.03;;;-0.22;72.01
77003;BME280;65939;50.060;14.288;2023-04-06T02:59:57;97577.44;;;-0.25;71.65
77003;BME280;65939;50.060;14.288;2023-04-06T03:01:57;97573.19;;;-0.26;71.73
77003;BME280;65939;50.060;14.288;2023-04-06T03:03:58;97574.19;;;-0.28;71.94
77003;BME280;65939;50.060;14.288;2023-04-06T03:05:58;97575.09;;;-0.29;72.48
77003;BME280;65939;50.060;14.288;2023-04-06T03:08:00;97576.91;;;-0.31;72.60
77003;BME280;65939;50.060;14.288;2023-04-06T03:10:01;97581.22;;;-0.32;72.21
77003;BME280;65939;50.060;14.288;2023-04-06T03:12:03;97582.94;;;-0.32;72.14
77003;BME280;65939;50.060;14.288;2023-04-06T03:14:03;97575.34;;;-0.34;71.76
77003;BME280;65939;50.060;14.288;2023-04-06T03:16:05;97581.28;;;-0.33;72.01
77003;BME280;65939;50.060;14.288;2023-04-06T03:18:05;97578.81;;;-0.35;72.24
77003;BME280;65939;50.060;14.288;2023-04-06T03:20:06;97588.25;;;-0.35;72.03
77003;BME280;65939;50.060;14.288;2023-04-06T03:22:07;97578.00;;;-0.35;71.89
77003;BME280;65939;50.060;14.288;2023-04-06T03:24:08;97583.19;;;-0.37;72.24
77003;BME280;65939;50.060;14.288;2023-04-06T03:26:09;97582.38;;;-0.37;72.25
77003;BME280;65939;50.060;14.288;2023-04-06T03:28:10;97577.34;;;-0.39;72.64
77003;BME280;65939;50.060;14.288;2023-04-06T03:30:10;97584.16;;;-0.39;72.28
77003;BME280;65939;50.060;14.288;2023-04-06T03:32:11;97589.31;;;-0.39;72.78
77003;BME280;65939;50.060;14.288;2023-04-06T03:34:12;97590.22;;;-0.40;72.88
77003;BME280;65939;50.060;14.288;2023-04-06T03:36:12;97586.00;;;-0.41;72.76
77003;BME280;65939;50.060;14.288;2023-04-06T03:38:13;97587.75;;;-0.42;72.70
77003;BME280;65939;50.060;14.288;2023-04-06T03:40:14;97592.06;;;-0.42;72.69
77003;BME280;65939;50.060;14.288;2023-04-06T03:42:14;97592.13;;;-0.44;72.73
77003;BME280;65939;50.060;14.288;2023-04-06T03:44:15;97597.25;;;-0.44;73.07
77003;BME280;65939;50.060;14.288;2023-04-06T03:46:17;97597.34;;;-0.45;73.19
77003;BME280;65939;50.060;14.288;2023-04-06T03:48:18;97604.28;;;-0.47;72.95
77003;BME280;65939;50.060;14.288;2023-04-06T03:50:18;97599.91;;;-0.45;72.85
77003;BME280;65939;50.060;14.288;2023-04-06T03:52:19;97598.88;;;-0.43;73.35
77003;BME280;65939;50.060;14.288;2023-04-06T03:54:23;97599.66;;;-0.41;73.44
77003;BME280;65939;50.060;14.288;2023-04-06T03:56:23;97608.16;;;-0.40;73.47
77003;BME280;65939;50.060;14.288;2023-04-06T03:58:24;97606.53;;;-0.41;72.71
77003;BME280;65939;50.060;14.288;2023-04-06T04:00:25;97606.53;;;-0.41;72.85
77003;BME280;65939;50.060;14.288;2023-04-06T04:02:25;97598.88;;;-0.43;73.36
77003;BME280;65939;50.060;14.288;2023-04-06T04:04:26;97603.34;;;-0.46;73.15
77003;BME280;65939;50.060;14.288;2023-04-06T04:06:27;97600.97;;;-0.50;73.60
77003;BME280;65939;50.060;14.288;2023-04-06T04:08:27;97611.38;;;-0.53;73.61
77003;BME280;65939;50.060;14.288;2023-04-06T04:10:28;97608.06;;;-0.55;73.22
77003;BME280;65939;50.060;14.288;2023-04-06T04:12:29;97608.16;;;-0.56;73.46
77003;BME280;65939;50.060;14.288;2023-04-06T04:14:29;97613.34;;;-0.58;73.72
77003;BME280;65939;50.060;14.288;2023-04-06T04:16:30;97615.06;;;-0.58;73.54
77003;BME280;65939;50.060;14.288;2023-04-06T04:18:31;97614.34;;;-0.60;73.82
77003;BME280;65939;50.060;14.288;2023-04-06T04:20:31;97609.13;;;-0.59;73.50
77003;BME280;65939;50.060;14.288;2023-04-06T04:22:32;97606.72;;;-0.62;73.38
77003;BME280;65939;50.060;14.288;2023-04-06T04:24:33;97606.81;;;-0.63;73.84
77003;BME280;65939;50.060;14.288;2023-04-06T04:26:33;97608.53;;;-0.64;73.84
77003;BME280;65939;50.060;14.288;2023-04-06T04:28:34;97617.22;;;-0.66;73.58
77003;BME280;65939;50.060;14.288;2023-04-06T04:30:35;97616.25;;;-0.64;73.74
77003;BME280;65939;50.060;14.288;2023-04-06T04:32:36;97616.25;;;-0.64;73.95
77003;BME280;65939;50.060;14.288;2023-04-06T04:34:36;97618.63;;;-0.61;73.74
77003;BME280;65939;50.060;14.288;2023-04-06T04:36:40;97613.44;;;-0.59;73.87
77003;BME280;65939;50.060;14.288;2023-04-06T04:38:42;97623.53;;;-0.56;73.72
77003;BME280;65939;50.060;14.288;2023-04-06T04:40:43;97626.00;;;-0.55;73.92
77003;BME280;65939;50.060;14.288;2023-04-06T04:42:43;97619.97;;;-0.54;73.58
77003;BME280;65939;50.060;14.288;2023-04-06T04:44:44;97621.66;;;-0.53;73.54
77003;BME280;65939;50.060;14.288;2023-04-06T04:46:44;97619.13;;;-0.54;73.66
77003;BME280;65939;50.060;14.288;2023-04-06T04:48:45;97621.66;;;-0.53;73.45
77003;BME280;65939;50.060;14.288;2023-04-06T04:50:46;97624.13;;;-0.51;73.54
77003;BME280;65939;50.060;14.288;2023-04-06T04:52:46;97619.75;;;-0.49;73.47
77003;BME280;65939;50.060;14.288;2023-04-06T04:54:47;97616.84;;;-0.43;73.48
77003;BME280;65939;50.060;14.288;2023-04-06T04:56:48;97619.19;;;-0.38;73.50
77003;BME280;65939;50.060;14.288;2023-04-06T04:58:48;97615.41;;;-0.31;73.68
77003;BME280;65939;50.060;14.288;2023-04-06T05:00:49;97619.47;;;-0.27;73.65
77003;BME280;65939;50.060;14.288;2023-04-06T05:02:50;97617.41;;;-0.20;73.22
77003;BME280;65939;50.060;14.288;2023-04-06T05:04:51;97623.19;;;-0.17;73.08
77003;BME280;65939;50.060;14.288;2023-04-06T05:07:05;97627.97;;;-0.11;73.25
77003;BME280;65939;50.060;14.288;2023-04-06T05:09:06;97621.03;;;-0.09;73.16
77003;BME280;65939;50.060;14.288;2023-04-06T05:11:07;97625.19;;;-0.06;73.00
77003;BME280;65939;50.060;14.288;2023-04-06T05:13:08;97626.59;;;-0.01;73.18
77003;BME280;65939;50.060;14.288;2023-04-06T05:15:09;97618.16;;;0.13;72.67
77003;BME280;65939;50.060;14.288;2023-04-06T05:17:10;97620.91;;;0.26;72.44
77003;BME280;65939;50.060;14.288;2023-04-06T05:19:11;97621.28;;;0.34;72.12
77003;BME280;65939;50.060;14.288;2023-04-06T05:21:12;97629.59;;;0.39;72.50
77003;BME280;65939;50.060;14.288;2023-04-06T05:23:13;97630.91;;;0.46;72.15
77003;BME280;65939;50.060;14.288;2023-04-06T05:25:14;97625.41;;;0.53;72.08
77003;BME280;65939;50.060;14.288;2023-04-06T05:27:15;97619.19;;;0.57;71.46
77003;BME280;65939;50.060;14.288;2023-04-06T05:29:16;97623.34;;;0.59;72.02
77003;BME280;65939;50.060;14.288;2023-04-06T05:31:17;97634.38;;;0.61;71.65
77003;BME280;65939;50.060;14.288;2023-04-06T05:33:18;97628.31;;;0.62;71.83
77003;BME280;65939;50.060;14.288;2023-04-06T05:35:18;97635.03;;;0.65;71.79
77003;BME280;65939;50.060;14.288;2023-04-06T05:37:19;97639.06;;;0.69;71.53
77003;BME280;65939;50.060;14.288;2023-04-06T05:39:19;97631.91;;;0.74;71.10
77003;BME280;65939;50.060;14.288;2023-04-06T05:41:20;97634.25;;;0.79;70.93
77003;BME280;65939;50.060;14.288;2023-04-06T05:43:21;97635.81;;;0.81;71.70
77003;BME280;65939;50.060;14.288;2023-04-06T05:45:21;97637.22;;;0.87;71.84
77003;BME280;65939;50.060;14.288;2023-04-06T05:47:22;97642.09;;;0.91;71.32
77003;BME280;65939;50.060;14.288;2023-04-06T05:49:23;97642.66;;;0.97;71.36
77003;BME280;65939;50.060;14.288;2023-04-06T05:51:24;97631.19;;;1.02;71.94
77003;BME280;65939;50.060;14.288;2023-04-06T05:53:25;97635.16;;;1.08;71.71
77003;BME280;65939;50.060;14.288;2023-04-06T05:55:26;97629.69;;;1.14;71.29
77003;BME280;65939;50.060;14.288;2023-04-06T05:57:28;97629.13;;;1.23;70.76
77003;BME280;65939;50.060;14.288;2023-04-06T05:59:31;97635.50;;;1.32;70.36
77003;BME280;65939;50.060;14.288;2023-04-06T06:01:33;97628.03;;;1.41;70.45
77003;BME280;65939;50.060;14.288;2023-04-06T06:03:34;97629.97;;;1.52;70.55
77003;BME280;65939;50.060;14.288;2023-04-06T06:05:35;97635.53;;;1.60;70.86
77003;BME280;65939;50.060;14.288;2023-04-06T06:07:36;97636.69;;;1.69;71.23
77003;BME280;65939;50.060;14.288;2023-04-06T06:09:37;97647.34;;;1.77;71.29
77003;BME280;65939;50.060;14.288;2023-04-06T06:11:37;97641.75;;;1.85;70.96
77003;BME280;65939;50.060;14.288;2023-04-06T06:13:38;97633.59;;;1.92;70.95
77003;BME280;65939;50.060;14.288;2023-04-06T06:15:39;97634.84;;;2.00;71.06
77003;BME280;65939;50.060;14.288;2023-04-06T06:17:39;97638.91;;;2.04;69.99
77003;BME280;65939;50.060;14.288;2023-04-06T06:19:40;97630.06;;;2.08;69.04
77003;BME280;65939;50.060;14.288;2023-04-06T06:21:41;97636.47;;;2.15;68.83
77003;BME280;65939;50.060;14.288;2023-04-06T06:23:42;97634.34;;;2.22;68.31
77003;BME280;65939;50.060;14.288;2023-04-06T06:25:43;97634.81;;;2.28;68.68
77003;BME280;65939;50.060;14.288;2023-04-06T06:27:44;97635.25;;;2.35;68.40
77003;BME280;65939;50.060;14.288;2023-04-06T06:29:44;97636.53;;;2.42;68.58
77003;BME280;65939;50.060;14.288;2023-04-06T06:31:45;97634.16;;;2.52;68.11
77003;BME280;65939;50.060;14.288;2023-04-06T06:33:46;97633.78;;;2.58;68.08
77003;BME280;65939;50.060;14.288;2023-04-06T06:35:50;97634.13;;;2.66;67.18
77003;BME280;65939;50.060;14.288;2023-04-06T06:37:51;97643.22;;;2.72;66.79
77003;BME280;65939;50.060;14.288;2023-04-06T06:39:52;97638.31;;;2.81;66.10
77003;BME280;65939;50.060;14.288;2023-04-06T06:41:53;97638.34;;;2.94;66.34
77003;BME280;65939;50.060;14.288;2023-04-06T06:43:55;97630.09;;;3.02;65.72
77003;BME280;65939;50.060;14.288;2023-04-06T06:45:56;97633.66;;;3.14;65.83
77003;BME280;65939;50.060;14.288;2023-04-06T06:47:56;97640.88;;;3.21;65.73
77003;BME280;65939;50.060;14.288;2023-04-06T06:49:57;97636.97;;;3.28;65.84
77003;BME280;65939;50.060;14.288;2023-04-06T06:51:58;97639.97;;;3.35;65.62
77003;BME280;65939;50.060;14.288;2023-04-06T06:53:58;97637.69;;;3.43;66.03
77003;BME280;65939;50.060;14.288;2023-04-06T06:55:59;97640.50;;;3.53;65.86
77003;BME280;65939;50.060;14.288;2023-04-06T06:58:00;97643.38;;;3.61;66.27
77003;BME280;65939;50.060;14.288;2023-04-06T07:00:00;97641.91;;;3.70;66.18
77003;BME280;65939;50.060;14.288;2023-04-06T07:02:03;97653.38;;;3.78;66.20
77003;BME280;65939;50.060;14.288;2023-04-06T07:04:04;97657.22;;;3.86;65.68
77003;BME280;65939;50.060;14.288;2023-04-06T07:06:04;97647.28;;;3.92;65.44
77003;BME280;65939;50.060;14.288;2023-04-06T07:08:05;97649.53;;;3.97;65.99
77003;BME280;65939;50.060;14.288;2023-04-06T07:10:07;97647.38;;;4.03;66.06
77003;BME280;65939;50.060;14.288;2023-04-06T07:12:08;97650.22;;;4.12;65.20
77003;BME280;65939;50.060;14.288;2023-04-06T07:14:08;97648.88;;;4.19;65.87
77003;BME280;65939;50.060;14.288;2023-04-06T07:16:09;97654.34;;;4.27;65.85
77003;BME280;65939;50.060;14.288;2023-04-06T07:18:10;97650.50;;;4.32;65.89
77003;BME280;65939;50.060;14.288;2023-04-06T07:20:11;97653.38;;;4.41;66.20
77003;BME280;65939;50.060;14.288;2023-04-06T07:22:12;97657.06;;;4.49;65.20
77003;BME280;65939;50.060;14.288;2023-04-06T07:24:13;97647.22;;;4.54;65.27
77003;BME280;65939;50.060;14.288;2023-04-06T07:26:14;97651.13;;;4.60;64.58
77003;BME280;65939;50.060;14.288;2023-04-06T07:28:14;97651.63;;;4.65;64.44
77003;BME280;65939;50.060;14.288;2023-04-06T07:30:15;97651.19;;;4.71;64.30
77003;BME280;65939;50.060;14.288;2023-04-06T07:32:16;97650.75;;;4.77;63.66
77003;BME280;65939;50.060;14.288;2023-04-06T07:34:17;97646.88;;;4.83;62.63
77003;BME280;65939;50.060;14.288;2023-04-06T07:36:17;97645.72;;;4.87;62.71
77003;BME280;65939;50.060;14.288;2023-04-06T07:38:18;97648.00;;;4.92;62.56
77003;BME280;65939;50.060;14.288;2023-04-06T07:40:19;97644.47;;;4.93;62.34
77003;BME280;65939;50.060;14.288;2023-04-06T07:42:20;97643.31;;;4.97;61.76
77003;BME280;65939;50.060;14.288;2023-04-06T07:44:20;97637.09;;;4.99;61.74
77003;BME280;65939;50.060;14.288;2023-04-06T07:46:21;97637.78;;;5.01;62.34
77003;BME280;65939;50.060;14.288;2023-04-06T07:48:22;97633.47;;;5.02;62.23
77003;BME280;65939;50.060;14.288;2023-04-06T07:50:22;97641.91;;;5.04;62.13
77003;BME280;65939;50.060;14.288;2023-04-06T07:52:23;97639.25;;;5.06;61.49
77003;BME280;65939;50.060;14.288;2023-04-06T07:54:23;97636.09;;;5.13;60.17
77003;BME280;65939;50.060;14.288;2023-04-06T07:56:24;97637.28;;;5.20;59.64
77003;BME280;65939;50.060;14.288;2023-04-06T07:58:25;97635.06;;;5.27;59.04
77003;BME280;65939;50.060;14.288;2023-04-06T08:00:26;97639.75;;;5.33;58.84
77003;BME280;65939;50.060;14.288;2023-04-06T08:02:27;97642.94;;;5.37;58.04
77003;BME280;65939;50.060;14.288;2023-04-06T08:04:28;97636.13;;;5.36;56.71
77003;BME280;65939;50.060;14.288;2023-04-06T08:06:28;97632.38;;;5.40;57.18
77003;BME280;65939;50.060;14.288;2023-04-06T08:08:29;97636.28;;;5.45;57.18
77003;BME280;65939;50.060;14.288;2023-04-06T08:10:31;97633.09;;;5.53;57.13
77003;BME280;65939;50.060;14.288;2023-04-06T08:12:34;97636.88;;;5.60;55.58
77003;BME280;65939;50.060;14.288;2023-04-06T08:14:35;97638.06;;;5.67;55.28
77003;BME280;65939;50.060;14.288;2023-04-06T08:16:36;97641.38;;;5.69;54.57
77003;BME280;65939;50.060;14.288;2023-04-06T08:18:36;97642.28;;;5.68;54.05
77003;BME280;65939;50.060;14.288;2023-04-06T08:20:37;97641.25;;;5.71;54.31
77003;BME280;65939;50.060;14.288;2023-04-06T08:22:38;97650.94;;;5.80;54.87
77003;BME280;65939;50.060;14.288;2023-04-06T08:24:38;97646.66;;;5.90;53.87
77003;BME280;65939;50.060;14.288;2023-04-06T08:26:39;97651.41;;;5.96;53.45
77003;BME280;65939;50.060;14.288;2023-04-06T08:28:40;97639.41;;;5.95;53.86
77003;BME280;65939;50.060;14.288;2023-04-06T08:30:42;97641.63;;;6.00;52.81
77003;BME280;65939;50.060;14.288;2023-04-06T08:32:43;97645.53;;;6.06;52.28
77003;BME280;65939;50.060;14.288;2023-04-06T08:34:44;97637.03;;;6.15;53.37
77003;BME280;65939;50.060;14.288;2023-04-06T08:36:45;97637.88;;;6.27;53.69
77003;BME280;65939;50.060;14.288;2023-04-06T08:38:46;97633.13;;;6.32;53.34
77003;BME280;65939;50.060;14.288;2023-04-06T08:40:47;97636.31;;;6.35;52.68
77003;BME280;65939;50.060;14.288;2023-04-06T08:42:54;97632.66;;;6.38;52.80
77003;BME280;65939;50.060;14.288;2023-04-06T08:44:55;97631.22;;;6.45;51.88
77003;BME280;65939;50.060;14.288;2023-04-06T08:46:57;97629.91;;;6.51;51.93
77003;BME280;65939;50.060;14.288;2023-04-06T08:49:01;97625.75;;;6.59;51.94
77003;BME280;65939;50.060;14.288;2023-04-06T08:51:02;97627.59;;;6.68;52.23
77003;BME280;65939;50.060;14.288;2023-04-06T08:53:05;97630.44;;;6.77;51.95
77003;BME280;65939;50.060;14.288;2023-04-06T08:55:06;97633.13;;;6.75;51.48
77003;BME280;65939;50.060;14.288;2023-04-06T08:57:08;97637.50;;;6.75;51.36
77003;BME280;65939;50.060;14.288;2023-04-06T08:59:10;97636.88;;;6.82;50.28
77003;BME280;65939;50.060;14.288;2023-04-06T09:01:14;97631.06;;;6.90;48.49
77003;BME280;65939;50.060;14.288;2023-04-06T09:03:16;97638.84;;;6.90;48.81
77003;BME280;65939;50.060;14.288;2023-04-06T09:05:18;97635.34;;;6.91;50.45
77003;BME280;65939;50.060;14.288;2023-04-06T09:07:19;97632.22;;;6.97;48.85
77003;BME280;65939;50.060;14.288;2023-04-06T09:09:20;97644.72;;;7.03;49.12
77003;BME280;65939;50.060;14.288;2023-04-06T09:11:20;97631.22;;;7.09;46.94
77003;BME280;65939;50.060;14.288;2023-04-06T09:13:22;97634.03;;;7.17;47.63
77003;BME280;65939;50.060;14.288;2023-04-06T09:15:22;97624.66;;;7.26;48.13
77003;BME280;65939;50.060;14.288;2023-04-06T09:17:31;97629.91;;;7.36;49.14
77003;BME280;65939;50.060;14.288;2023-04-06T09:19:46;97637.84;;;7.34;47.14
77003;BME280;65939;50.060;14.288;2023-04-06T09:21:47;97624.03;;;7.34;46.75
77003;BME280;65939;50.060;14.288;2023-04-06T09:23:58;97618.91;;;7.43;47.44
77003;BME280;65939;50.060;14.288;2023-04-06T09:26:06;97621.53;;;7.53;48.10
77003;BME280;65939;50.060;14.288;2023-04-06T09:28:07;97617.88;;;7.56;47.23
77003;BME280;65939;50.060;14.288;2023-04-06T09:30:09;97620.78;;;7.62;46.41
77003;BME280;65939;50.060;14.288;2023-04-06T09:32:13;97614.63;;;7.63;46.55
77003;BME280;65939;50.060;14.288;2023-04-06T09:34:21;97617.63;;;7.59;46.69
77003;BME280;65939;50.060;14.288;2023-04-06T09:36:34;97618.19;;;7.62;46.19
77003;BME280;65939;50.060;14.288;2023-04-06T09:38:39;97619.31;;;7.70;46.38
77003;BME280;65939;50.060;14.288;2023-04-06T09:40:51;97620.53;;;7.75;46.08
77003;BME280;65939;50.060;14.288;2023-04-06T09:42:51;97608.13;;;7.79;46.62
77003;BME280;65939;50.060;14.288;2023-04-06T09:44:54;97613.06;;;7.82;46.43
77003;BME280;65939;50.060;14.288;2023-04-06T09:46:55;97609.81;;;7.89;45.11
77003;BME280;65939;50.060;14.288;2023-04-06T09:48:56;97609.84;;;7.99;45.12
77003;BME280;65939;50.060;14.288;2023-04-06T09:51:03;97609.31;;;8.05;45.73
77003;BME280;65939;50.060;14.288;2023-04-06T09:53:07;97606.63;;;8.16;45.51
77003;BME280;65939;50.060;14.288;2023-04-06T09:55:08;97596.25;;;8.26;45.88
77003;BME280;65939;50.060;14.288;2023-04-06T09:57:25;97610.53;;;8.42;45.27
77003;BME280;65939;50.060;14.288;2023-04-06T10:01:32;97596.63;;;8.62;44.79
77003;BME280;65939;50.060;14.288;2023-04-06T10:03:56;97597.16;;;8.66;44.36
77003;BME280;65939;50.060;14.288;2023-04-06T10:06:05;97599.91;;;8.54;43.92
77003;BME280;65939;50.060;14.288;2023-04-06T10:08:13;97595.22;;;8.48;44.34
77003;BME280;65939;50.060;14.288;2023-04-06T10:10:15;97603.28;;;8.45;43.34
77003;BME280;65939;50.060;14.288;2023-04-06T10:12:16;97604.38;;;8.43;44.09
77003;BME280;65939;50.060;14.288;2023-04-06T10:14:17;97596.59;;;8.52;43.85
77003;BME280;65939;50.060;14.288;2023-04-06T10:16:17;97592.75;;;8.56;44.03
77003;BME280;65939;50.060;14.288;2023-04-06T10:18:19;97593.06;;;8.73;44.97
77003;BME280;65939;50.060;14.288;2023-04-06T10:20:48;97586.19;;;9.01;44.90
77003;BME280;65939;50.060;14.288;2023-04-06T10:24:56;97588.66;;;9.02;43.51
77003;BME280;65939;50.060;14.288;2023-04-06T10:27:02;97591.81;;;8.77;44.20
77003;BME280;65939;50.060;14.288;2023-04-06T10:29:04;97587.81;;;8.53;43.89
77003;BME280;65939;50.060;14.288;2023-04-06T10:31:05;97593.25;;;8.31;43.85
77003;BME280;65939;50.060;14.288;2023-04-06T10:33:17;97591.84;;;8.17;44.30
77003;BME280;65939;50.060;14.288;2023-04-06T10:35:17;97594.13;;;8.10;43.44
77003;BME280;65939;50.060;14.288;2023-04-06T10:37:18;97583.84;;;7.99;43.72
77003;BME280;65939;50.060;14.288;2023-04-06T10:39:24;97579.47;;;7.90;43.93
77003;BME280;65939;50.060;14.288;2023-04-06T10:41:40;97583.00;;;7.89;43.31
77003;BME280;65939;50.060;14.288;2023-04-06T10:43:41;97577.03;;;8.08;44.52
77003;BME280;65939;50.060;14.288;2023-04-06T10:45:42;97578.59;;;8.30;44.16